Time;durP1;ratioP1;P1;durP2;ratioP2;P2;SDS_P1;SDS_P2;PMS_P1;PMS_P2;Temp;Humidity;BMP_temperature;BMP_pressure;BME280_temperature;BME280_humidity;BME280_pressure;Samples;Min_cycle;Max_cycle;Signal;HPM_P1;HPM_P2
2022/12/17 13:07:22;;;;;;;;;;;;;;;;;;5055576;28;20427;-56
2022/12/17 13:09:49;;;;;;;;;;;;;;;;;;5055219;28;20003;-59
2022/12/17 13:12:15;;;;;;;;;;;;;;;;;;5073901;28;20003;-55
2022/12/17 13:14:41;;;;;;;;;;;;;;;;;;5075364;28;20005;-57
2022/12/17 13:17:06;;;;;;;;;;;;;;;;;;5059449;28;19935;-58
2022/12/17 13:19:32;;;;;;;;;;;;;;;;;;5072826;28;20030;-58
2022/12/17 13:21:58;;;;;;;;;;;;;;;;;;5075278;28;20254;-58
2022/12/17 13:24:24;;;;;;;;;;;;;;;;;;5074720;28;20330;-53
2022/12/17 13:26:50;;;;;;;;;;;;;;;;;;5067937;28;20539;-56
2022/12/17 13:29:16;;;;;;;;;;;;;;;;;;5058479;28;20355;-56
2022/12/17 13:31:42;;;;;;;;;;;;;;;;;;5058699;28;19912;-58
2022/12/17 13:34:08;;;;;;;;;;;;;;;;;;5056486;28;19913;-57
2022/12/17 13:36:34;;;;;;;;;;;;;;;;;;5063063;28;19919;-56
2022/12/17 13:39:00;;;;;;;;;;;;;;;;;;5074871;28;19919;-58
2022/12/17 13:41:26;;;;;;;;;;;;;;;;;;5074973;28;19987;-54
2022/12/17 13:43:52;;;;;;;;;;;;;;;;;;5074831;28;19916;-57
2022/12/17 13:46:18;;;;;;;;;;;;;;;;;;5071522;28;19935;-58
2022/12/17 13:48:44;;;;;;;;;;;;;;;;;;5073301;28;19932;-58
2022/12/17 13:51:10;;;;;;;;;;;;;;;;;;5071868;28;20373;-57
2022/12/17 13:53:36;;;;;;;;;;;;;;;;;;5074814;28;19914;-57
2022/12/17 13:56:02;;;;;;;;;;;;;;;;;;5071397;28;19918;-60
2022/12/17 13:58:28;;;;;;;;;;;;;;;;;;5074371;28;19914;-55
2022/12/17 14:00:54;;;;;;;;;;;;;;;;;;5064489;28;19913;-58
2022/12/17 14:03:21;;;;;;;;;;;;;;;;;;5054278;28;19999;-58
2022/12/17 14:05:47;;;;;;;;;;;;;;;;;;5055536;28;19913;-58
2022/12/17 14:08:13;;;;;;;;;;;;;;;;;;5054178;28;19954;-59
2022/12/17 14:10:39;;;;;;;;;;;;;;;;;;5054341;28;20364;-57
2022/12/17 14:13:05;;;;;;;;;;;;;;;;;;5053744;28;20198;-58
2022/12/17 14:15:31;;;;;;;;;;;;;;;;;;5054605;28;19913;-58
2022/12/17 14:17:58;;;;;;;;;;;;;;;;;;5053901;28;19970;-58
2022/12/17 14:20:24;;;;;;;;;;;;;;;;;;5053974;28;19961;-58
2022/12/17 14:22:50;;;;;;;;;;;;;;;;;;5053812;28;19920;-58
2022/12/17 14:25:16;;;;;;;;;;;;;;;;;;5054297;28;19913;-57
2022/12/17 14:27:41;;;;;;;;;;;;;;;;;;5053900;28;19909;-58
2022/12/17 14:30:07;;;;;;;;;;;;;;;;;;5056699;28;20365;-58
2022/12/17 14:32:33;;;;;;;;;;;;;;;;;;5053875;28;19915;-58
2022/12/17 14:34:59;;;;;;;;;;;;;;;;;;5060468;28;19927;-58
2022/12/17 14:37:25;;;;;;;;;;;;;;;;;;5073871;28;19975;-58
2022/12/17 14:39:51;;;;;;;;;;;;;;;;;;5062347;28;19916;-58
2022/12/17 14:42:28;;;;;;;;;;;;;;;;;;5053580;28;19916;-57
2022/12/17 14:44:54;;;;;;;;;;;;;;;;;;5068942;28;19920;-57
2022/12/17 14:47:20;;;;;;;;;;;;;;;;;;5069955;28;19913;-58
2022/12/17 14:49:46;;;;;;;;;;;;;;;;;;5053531;28;19909;-58
2022/12/17 14:52:12;;;;;;;;;;;;;;;;;;5053555;28;19915;-57
2022/12/17 14:54:38;;;;;;;;;;;;;;;;;;5052924;28;19916;-58
2022/12/17 14:57:04;;;;;;;;;;;;;;;;;;5069444;28;19966;-58
2022/12/17 14:59:30;;;;;;;;;;;;;;;;;;5054358;28;19913;-58
2022/12/17 15:01:56;;;;;;;;;;;;;;;;;;5053076;28;19916;-57
2022/12/17 15:04:22;;;;;;;;;;;;;;;;;;5063025;28;19912;-58
2022/12/17 15:06:48;;;;;;;;;;;;;;;;;;5055742;28;19947;-58
2022/12/17 15:09:14;;;;;;;;;;;;;;;;;;5053203;28;20373;-58
2022/12/17 15:11:40;;;;;;;;;;;;;;;;;;5052629;28;19913;-58
2022/12/17 15:14:06;;;;;;;;;;;;;;;;;;5053928;28;19920;-58
2022/12/17 15:16:32;;;;;;;;;;;;;;;;;;5064700;28;19919;-54
2022/12/17 15:18:59;;;;;;;;;;;;;;;;;;5063474;28;19917;-59
2022/12/17 15:21:25;;;;;;;;;;;;;;;;;;5053505;28;20379;-58
2022/12/17 15:23:51;;;;;;;;;;;;;;;;;;5054594;28;20004;-59
2022/12/17 15:26:18;;;;;;;;;;;;;;;;;;5063347;28;19924;-58
2022/12/17 15:28:44;;;;;;;;;;;;;;;;;;5053848;28;20258;-58
2022/12/17 15:31:11;;;;;;;;;;;;;;;;;;5061647;28;20011;-51
2022/12/17 15:33:37;;;;;;;;;;;;;;;;;;5072732;28;19954;-55
2022/12/17 15:36:03;;;;;;;;;;;;;;;;;;5060289;28;19913;-56
2022/12/17 15:38:28;;;;;;;;;;;;;;;;;;5050476;28;19970;-54
2022/12/17 15:40:54;;;;;;;;;;;;;;;;;;5057487;28;19913;-56
2022/12/17 15:43:20;;;;;;;;;;;;;;;;;;5066921;28;20015;-57
2022/12/17 15:45:46;;;;;;;;;;;;;;;;;;5053846;28;19920;-58
2022/12/17 15:48:12;;;;;;;;;;;;;;;;;;5052462;28;19909;-58
2022/12/17 15:50:38;;;;;;;;;;;;;;;;;;5053075;28;20273;-58
2022/12/17 15:53:04;;;;;;;;;;;;;;;;;;5052150;28;20007;-56
2022/12/17 15:55:30;;;;;;;;;;;;;;;;;;5052992;28;19998;-54
2022/12/17 15:57:56;;;;;;;;;;;;;;;;;;5051871;28;20327;-55
2022/12/17 16:00:23;;;;;;;;;;;;;;;;;;5051731;28;20035;-59
2022/12/17 16:02:49;;;;;;;;;;;;;;;;;;5055251;28;20016;-56
2022/12/17 16:05:15;;;;;;;;;;;;;;;;;;5070919;28;20436;-59
2022/12/17 16:07:42;;;;;;;;;;;;;;;;;;5052585;28;20000;-57
2022/12/17 16:10:08;;;;;;;;;;;;;;;;;;5062983;28;19919;-57
2022/12/17 16:12:34;;;;;;;;;;;;;;;;;;5052231;28;19913;-58
2022/12/17 16:15:00;;;;;;;;;;;;;;;;;;5052308;28;19970;-58
2022/12/17 16:17:26;;;;;;;;;;;;;;;;;;5054762;28;20366;-59
2022/12/17 16:19:52;;;;;;;;;;;;;;;;;;5056228;28;20312;-56
2022/12/17 16:22:17;;;;;;;;;;;;;;;;;;5062182;28;20376;-57
2022/12/17 16:24:43;;;;;;;;;;;;;;;;;;5052878;28;20389;-58
2022/12/17 16:27:09;;;;;;;;;;;;;;;;;;5068282;28;19927;-59
2022/12/17 16:29:35;;;;;;;;;;;;;;;;;;5067120;28;19952;-56
2022/12/17 16:32:01;;;;;;;;;;;;;;;;;;5060744;28;19916;-56
2022/12/17 16:34:27;;;;;;;;;;;;;;;;;;5055358;28;19980;-58
2022/12/17 16:36:53;;;;;;;;;;;;;;;;;;5062318;28;19912;-57
2022/12/17 16:39:19;;;;;;;;;;;;;;;;;;5056744;28;19924;-56
2022/12/17 16:41:45;;;;;;;;;;;;;;;;;;5070255;28;19913;-59
2022/12/17 16:44:11;;;;;;;;;;;;;;;;;;5066790;28;20301;-58
2022/12/17 16:46:37;;;;;;;;;;;;;;;;;;5060221;28;19912;-59
2022/12/17 16:49:03;;;;;;;;;;;;;;;;;;5070329;28;19909;-58
2022/12/17 16:51:29;;;;;;;;;;;;;;;;;;5071687;28;20006;-58
2022/12/17 16:53:55;;;;;;;;;;;;;;;;;;5052504;28;19919;-59
2022/12/17 16:56:21;;;;;;;;;;;;;;;;;;5055409;28;19963;-58
2022/12/17 16:58:47;;;;;;;;;;;;;;;;;;5056694;28;19923;-58
2022/12/17 17:01:13;;;;;;;;;;;;;;;;;;5050422;28;19963;-57
2022/12/17 17:03:39;;;;;;;;;;;;;;;;;;5050204;28;20415;-58
2022/12/17 17:06:06;;;;;;;;;;;;;;;;;;5052949;28;19975;-57
2022/12/17 17:08:32;;;;;;;;;;;;;;;;;;5051077;28;19913;-55
2022/12/17 17:10:58;;;;;;;;;;;;;;;;;;5051447;28;20331;-59
2022/12/17 17:13:24;;;;;;;;;;;;;;;;;;5051093;28;19919;-57
2022/12/17 17:15:50;;;;;;;;;;;;;;;;;;5056753;28;20280;-58
2022/12/17 17:18:16;;;;;;;;;;;;;;;;;;5066278;28;20019;-58
2022/12/17 17:20:42;;;;;;;;;;;;;;;;;;5059949;28;19916;-57
2022/12/17 17:23:08;;;;;;;;;;;;;;;;;;5061554;28;19920;-58
2022/12/17 17:25:34;;;;;;;;;;;;;;;;;;5068576;28;19913;-59
2022/12/17 17:28:00;;;;;;;;;;;;;;;;;;5053862;28;19912;-58
2022/12/17 17:30:26;;;;;;;;;;;;;;;;;;5055219;28;19921;-58
2022/12/17 17:32:52;;;;;;;;;;;;;;;;;;5063107;28;20023;-55
2022/12/17 17:35:18;;;;;;;;;;;;;;;;;;5068327;28;20373;-59
2022/12/17 17:37:44;;;;;;;;;;;;;;;;;;5064542;28;20018;-59
2022/12/17 17:40:10;;;;;;;;;;;;;;;;;;5068879;28;19917;-56
2022/12/17 17:42:36;;;;;;;;;;;;;;;;;;5066863;28;19916;-58
2022/12/17 17:45:02;;;;;;;;;;;;;;;;;;5059180;28;19925;-57
2022/12/17 17:47:28;;;;;;;;;;;;;;;;;;5054697;28;19909;-57
2022/12/17 17:49:54;;;;;;;;;;;;;;;;;;5066916;28;20344;-56
2022/12/17 17:52:20;;;;;;;;;;;;;;;;;;5062331;28;19919;-58
2022/12/17 17:54:47;;;;;;;;;;;;;;;;;;5068924;28;19917;-58
2022/12/17 17:57:13;;;;;;;;;;;;;;;;;;5073272;28;19912;-58
2022/12/17 17:59:39;;;;;;;;;;;;;;;;;;5062125;28;20347;-57
2022/12/17 18:02:05;;;;;;;;;;;;;;;;;;5060239;28;19916;-57
2022/12/17 18:04:31;;;;;;;;;;;;;;;;;;5063732;28;20336;-56
2022/12/17 18:06:57;;;;;;;;;;;;;;;;;;5065031;28;19912;-57
2022/12/17 18:09:23;;;;;;;;;;;;;;;;;;5053553;28;20381;-56
2022/12/17 18:11:49;;;;;;;;;;;;;;;;;;5070797;28;19912;-56
2022/12/17 18:14:16;;;;;;;;;;;;;;;;;;5071589;28;19913;-56
2022/12/17 18:16:42;;;;;;;;;;;;;;;;;;5069674;28;19916;-57
2022/12/17 18:19:08;;;;;;;;;;;;;;;;;;5049918;28;19917;-59
2022/12/17 18:21:34;;;;;;;;;;;;;;;;;;5048380;28;19917;-58
2022/12/17 18:24:00;;;;;;;;;;;;;;;;;;5040776;28;19956;-58
2022/12/17 18:26:26;;;;;;;;;;;;;;;;;;5041891;28;20322;-58
2022/12/17 18:28:52;;;;;;;;;;;;;;;;;;5047791;28;20002;-58
2022/12/17 18:31:18;;;;;;;;;;;;;;;;;;5054051;28;19917;-58
2022/12/17 18:33:44;;;;;;;;;;;;;;;;;;5054875;28;20455;-58
2022/12/17 18:36:10;;;;;;;;;;;;;;;;;;5058316;28;19958;-56
2022/12/17 18:38:36;;;;;;;;;;;;;;;;;;5048949;28;19971;-58
2022/12/17 18:41:03;;;;;;;;;;;;;;;;;;5058141;28;19939;-57
2022/12/17 18:43:29;;;;;;;;;;;;;;;;;;5055147;28;19942;-57
2022/12/17 18:45:54;;;;;;;;;;;;;;;;;;5054460;28;19932;-55
2022/12/17 18:48:20;;;;;;;;;;;;;;;;;;5057515;28;19979;-55
2022/12/17 18:50:46;;;;;;;;;;;;;;;;;;5044810;28;19945;-56
2022/12/17 18:53:12;;;;;;;;;;;;;;;;;;5044266;28;19916;-55
2022/12/17 18:55:39;;;;;;;;;;;;;;;;;;5044362;28;19916;-56
2022/12/17 18:58:05;;;;;;;;;;;;;;;;;;5055444;28;19917;-58
2022/12/17 19:00:31;;;;;;;;;;;;;;;;;;5044314;28;20358;-57
2022/12/17 19:02:57;;;;;;;;;;;;;;;;;;5053872;28;19931;-59
2022/12/17 19:05:23;;;;;;;;;;;;;;;;;;5053704;28;20313;-54
2022/12/17 19:07:49;;;;;;;;;;;;;;;;;;5052071;28;20519;-58
2022/12/17 19:10:15;;;;;;;;;;;;;;;;;;5057622;28;19931;-50
2022/12/17 19:12:40;;;;;;;;;;;;;;;;;;5049258;28;19932;-58
2022/12/17 19:15:06;;;;;;;;;;;;;;;;;;5041411;28;20493;-55
2022/12/17 19:17:32;;;;;;;;;;;;;;;;;;5056601;28;19966;-56
2022/12/17 19:19:58;;;;;;;;;;;;;;;;;;5063861;28;19917;-56
2022/12/17 19:22:24;;;;;;;;;;;;;;;;;;5061047;28;19966;-57
2022/12/17 19:24:50;;;;;;;;;;;;;;;;;;5047736;28;19909;-58
2022/12/17 19:27:16;;;;;;;;;;;;;;;;;;5046611;28;20362;-58
2022/12/17 19:29:42;;;;;;;;;;;;;;;;;;5063094;28;20413;-57
2022/12/17 19:32:08;;;;;;;;;;;;;;;;;;5057215;28;19916;-55
2022/12/17 19:34:34;;;;;;;;;;;;;;;;;;5047018;28;19919;-57
2022/12/17 19:37:00;;;;;;;;;;;;;;;;;;5045009;28;19960;-57
2022/12/17 19:39:26;;;;;;;;;;;;;;;;;;5043958;28;20304;-57
2022/12/17 19:41:52;;;;;;;;;;;;;;;;;;5047306;28;19916;-57
2022/12/17 19:44:20;;;;;;;;;;;;;;;;;;5046925;28;19916;-59
2022/12/17 19:46:46;;;;;;;;;;;;;;;;;;5043270;28;19988;-59
2022/12/17 19:49:12;;;;;;;;;;;;;;;;;;5047602;28;19916;-58
2022/12/17 19:51:39;;;;;;;;;;;;;;;;;;5042718;28;19913;-57
2022/12/17 19:54:05;;;;;;;;;;;;;;;;;;5046644;28;20420;-59
2022/12/17 19:56:31;;;;;;;;;;;;;;;;;;5041528;28;19917;-58
2022/12/17 19:58:57;;;;;;;;;;;;;;;;;;5048257;28;19912;-59
2022/12/17 20:01:23;;;;;;;;;;;;;;;;;;5046714;28;19921;-58
2022/12/17 20:03:49;;;;;;;;;;;;;;;;;;5050390;28;20385;-57
2022/12/17 20:06:15;;;;;;;;;;;;;;;;;;5040695;28;19956;-56
2022/12/17 20:08:41;;;;;;;;;;;;;;;;;;5047488;28;19940;-58
2022/12/17 20:13:51;;;;;;;;;;;;;;;;;;5046706;28;19920;-57
2022/12/17 20:16:17;;;;;;;;;;;;;;;;;;5047784;28;19959;-58
2022/12/17 20:18:43;;;;;;;;;;;;;;;;;;5044068;28;19964;-58
2022/12/17 20:21:09;;;;;;;;;;;;;;;;;;5048897;28;20353;-57
2022/12/17 20:23:35;;;;;;;;;;;;;;;;;;5047668;28;19983;-58
2022/12/17 20:26:01;;;;;;;;;;;;;;;;;;5046028;28;21870;-55
2022/12/17 20:28:27;;;;;;;;;;;;;;;;;;5045137;28;20369;-58
2022/12/17 20:30:53;;;;;;;;;;;;;;;;;;5042484;28;19909;-54
2022/12/17 20:33:19;;;;;;;;;;;;;;;;;;5037128;28;19917;-56
2022/12/17 20:35:45;;;;;;;;;;;;;;;;;;5039914;28;19920;-58
2022/12/17 20:38:10;;;;;;;;;;;;;;;;;;5056287;28;20427;-59
2022/12/17 20:40:36;;;;;;;;;;;;;;;;;;5042900;28;19999;-58
2022/12/17 20:43:02;;;;;;;;;;;;;;;;;;5051690;28;19913;-57
2022/12/17 20:45:28;;;;;;;;;;;;;;;;;;5043413;28;19954;-57
2022/12/17 20:47:54;;;;;;;;;;;;;;;;;;5037711;28;19913;-57
2022/12/17 20:50:20;;;;;;;;;;;;;;;;;;5042310;28;19918;-58
2022/12/17 20:52:46;;;;;;;;;;;;;;;;;;5048349;28;20285;-58
2022/12/17 20:55:12;;;;;;;;;;;;;;;;;;5041832;28;20380;-57
2022/12/17 20:57:38;;;;;;;;;;;;;;;;;;5045451;28;19932;-58
2022/12/17 21:00:04;;;;;;;;;;;;;;;;;;5044444;28;19917;-58
2022/12/17 21:02:30;;;;;;;;;;;;;;;;;;5044492;28;19923;-58
2022/12/17 21:04:56;;;;;;;;;;;;;;;;;;5044585;28;19920;-58
2022/12/17 21:07:22;;;;;;;;;;;;;;;;;;5046300;28;20011;-58
2022/12/17 21:09:47;;;;;;;;;;;;;;;;;;5042761;28;20004;-57
2022/12/17 21:12:13;;;;;;;;;;;;;;;;;;5047211;28;20448;-59
2022/12/17 21:14:39;;;;;;;;;;;;;;;;;;5046698;28;20004;-58
2022/12/17 21:17:05;;;;;;;;;;;;;;;;;;5051514;28;20328;-58
2022/12/17 21:19:31;;;;;;;;;;;;;;;;;;5048660;28;19920;-56
2022/12/17 21:21:57;;;;;;;;;;;;;;;;;;5052999;28;19967;-58
2022/12/17 21:24:23;;;;;;;;;;;;;;;;;;5046824;28;19913;-56
2022/12/17 21:26:49;;;;;;;;;;;;;;;;;;5049269;28;19913;-56
2022/12/17 21:29:15;;;;;;;;;;;;;;;;;;5050211;28;19912;-58
2022/12/17 21:31:41;;;;;;;;;;;;;;;;;;5043339;28;20563;-53
2022/12/17 21:34:08;;;;;;;;;;;;;;;;;;5046028;28;19915;-58
2022/12/17 21:36:34;;;;;;;;;;;;;;;;;;5044244;28;19948;-58
2022/12/17 21:39:00;;;;;;;;;;;;;;;;;;5047935;28;19917;-57
2022/12/17 21:41:26;;;;;;;;;;;;;;;;;;5042265;28;19920;-58
2022/12/17 21:43:52;;;;;;;;;;;;;;;;;;5050917;28;19916;-56
2022/12/17 21:46:18;;;;;;;;;;;;;;;;;;5048737;28;19913;-55
2022/12/17 21:48:44;;;;;;;;;;;;;;;;;;5050971;28;20467;-54
2022/12/17 21:51:09;;;;;;;;;;;;;;;;;;5053483;28;19909;-57
2022/12/17 21:53:37;;;;;;;;;;;;;;;;;;5048304;28;19913;-58
2022/12/17 21:56:03;;;;;;;;;;;;;;;;;;5047343;28;19960;-58
2022/12/17 21:58:29;;;;;;;;;;;;;;;;;;5047369;28;19986;-57
2022/12/17 22:00:55;;;;;;;;;;;;;;;;;;5049294;28;19968;-58
2022/12/17 22:03:21;;;;;;;;;;;;;;;;;;5042554;28;19941;-57
2022/12/17 22:05:47;;;;;;;;;;;;;;;;;;5049380;28;19913;-56
2022/12/17 22:08:13;;;;;;;;;;;;;;;;;;5050045;28;19919;-58
2022/12/17 22:10:39;;;;;;;;;;;;;;;;;;5052254;28;19909;-56
2022/12/17 22:15:52;;;;;;;;;;;;;;;;;;5048332;28;19919;-56
2022/12/17 22:18:18;;;;;;;;;;;;;;;;;;5040916;28;19979;-56
2022/12/17 22:20:44;;;;;;;;;;;;;;;;;;5051470;28;19920;-54
2022/12/17 22:23:10;;;;;;;;;;;;;;;;;;5046358;28;19919;-58
2022/12/17 22:25:37;;;;;;;;;;;;;;;;;;5053906;28;19954;-57
2022/12/17 22:28:03;;;;;;;;;;;;;;;;;;5047861;28;19959;-58
2022/12/17 22:33:14;;;;;;;;;;;;;;;;;;5048658;28;20392;-58
2022/12/17 22:35:45;;;;;;;;;;;;;;;;;;5043512;28;19913;-57
2022/12/17 22:38:11;;;;;;;;;;;;;;;;;;5048989;28;19917;-58
2022/12/17 22:40:36;;;;;;;;;;;;;;;;;;5050399;28;20012;-56
2022/12/17 22:45:47;;;;;;;;;;;;;;;;;;5042062;28;19974;-58
2022/12/17 22:48:13;;;;;;;;;;;;;;;;;;5048815;28;20401;-57
2022/12/17 22:50:39;;;;;;;;;;;;;;;;;;5048363;28;19955;-54
2022/12/17 22:53:05;;;;;;;;;;;;;;;;;;5047236;28;19914;-57
2022/12/17 22:55:31;;;;;;;;;;;;;;;;;;5046279;28;20004;-58
2022/12/17 22:57:57;;;;;;;;;;;;;;;;;;5042180;28;19917;-55
2022/12/17 23:00:23;;;;;;;;;;;;;;;;;;5036628;28;19913;-57
2022/12/17 23:02:49;;;;;;;;;;;;;;;;;;5043991;28;19928;-58
2022/12/17 23:05:15;;;;;;;;;;;;;;;;;;5044016;28;20396;-56
2022/12/17 23:07:41;;;;;;;;;;;;;;;;;;5039840;28;19913;-56
2022/12/17 23:10:07;;;;;;;;;;;;;;;;;;5033308;28;19909;-57
2022/12/17 23:12:51;;;;;;;;;;;;;;;;;;5031845;28;19916;-58
2022/12/17 23:15:17;;;;;;;;;;;;;;;;;;5038731;28;19913;-54
2022/12/17 23:17:43;;;;;;;;;;;;;;;;;;5053143;28;19913;-56
2022/12/17 23:20:09;;;;;;;;;;;;;;;;;;5052670;28;19909;-55
2022/12/17 23:22:34;;;;;;;;;;;;;;;;;;5052558;28;19932;-56
2022/12/17 23:25:00;;;;;;;;;;;;;;;;;;5052471;28;19916;-56
2022/12/17 23:27:26;;;;;;;;;;;;;;;;;;5052771;28;19909;-57
2022/12/17 23:29:52;;;;;;;;;;;;;;;;;;5052547;28;19959;-56
2022/12/17 23:32:18;;;;;;;;;;;;;;;;;;5052903;28;20332;-57
2022/12/17 23:34:44;;;;;;;;;;;;;;;;;;5052326;28;20309;-58
2022/12/17 23:37:10;;;;;;;;;;;;;;;;;;5051587;28;20001;-56
2022/12/17 23:39:36;;;;;;;;;;;;;;;;;;5052511;28;20550;-55
2022/12/17 23:42:02;;;;;;;;;;;;;;;;;;5052731;28;20377;-58
2022/12/17 23:44:28;;;;;;;;;;;;;;;;;;5052637;28;19952;-55
2022/12/17 23:46:54;;;;;;;;;;;;;;;;;;5059029;28;19952;-58
2022/12/17 23:49:20;;;;;;;;;;;;;;;;;;5068767;28;19943;-55
2022/12/17 23:51:45;;;;;;;;;;;;;;;;;;5060289;28;19912;-56
2022/12/17 23:54:11;;;;;;;;;;;;;;;;;;5056925;28;19970;-57
2022/12/17 23:56:37;;;;;;;;;;;;;;;;;;5057053;28;20423;-58
2022/12/17 23:59:03;;;;;;;;;;;;;;;;;;5051716;28;19913;-57
